sensor_id;sensor_type;location;lat;lon;timestamp;temperature;humidity
60727;DHT22;46577;49.004;12.120;2022-12-29T00:01:34;2.30;99.90
60727;DHT22;46577;49.004;12.120;2022-12-29T00:04:00;2.40;99.90
60727;DHT22;46577;49.004;12.120;2022-12-29T00:06:26;2.40;99.90
60727;DHT22;46577;49.004;12.120;2022-12-29T00:08:52;2.40;99.90
60727;DHT22;46577;49.004;12.120;2022-12-29T00:11:20;2.50;99.90
60727;DHT22;46577;49.004;12.120;2022-12-29T00:13:46;2.50;99.90
60727;DHT22;46577;49.004;12.120;2022-12-29T00:16:31;2.50;99.90
60727;DHT22;46577;49.004;12.120;2022-12-29T00:18:57;2.60;99.90
60727;DHT22;46577;49.004;12.120;2022-12-29T00:21:24;2.60;99.90
60727;DHT22;46577;49.004;12.120;2022-12-29T00:24:19;2.60;99.90
60727;DHT22;46577;49.004;12.120;2022-12-29T00:29:51;2.60;99.90
60727;DHT22;46577;49.004;12.120;2022-12-29T00:32:35;2.60;99.90
60727;DHT22;46577;49.004;12.120;2022-12-29T00:35:25;2.60;99.90
60727;DHT22;46577;49.004;12.120;2022-12-29T00:37:52;2.70;99.90
60727;DHT22;46577;49.004;12.120;2022-12-29T00:40:36;2.70;99.90
60727;DHT22;46577;49.004;12.120;2022-12-29T00:43:21;2.70;99.90
60727;DHT22;46577;49.004;12.120;2022-12-29T00:46:05;2.70;99.90
60727;DHT22;46577;49.004;12.120;2022-12-29T00:48:30;2.60;99.90
60727;DHT22;46577;49.004;12.120;2022-12-29T00:51:14;2.60;99.90
60727;DHT22;46577;49.004;12.120;2022-12-29T00:53:40;2.60;99.90
60727;DHT22;46577;49.004;12.120;2022-12-29T00:56:05;2.60;99.90
60727;DHT22;46577;49.004;12.120;2022-12-29T00:58:31;2.60;99.90
60727;DHT22;46577;49.004;12.120;2022-12-29T01:01:07;2.60;99.90
60727;DHT22;46577;49.004;12.120;2022-12-29T01:03:36;2.60;99.90
60727;DHT22;46577;49.004;12.120;2022-12-29T01:06:07;2.60;99.90
60727;DHT22;46577;49.004;12.120;2022-12-29T01:08:34;2.50;99.90
60727;DHT22;46577;49.004;12.120;2022-12-29T01:11:01;2.50;99.90
60727;DHT22;46577;49.004;12.120;2022-12-29T01:13:28;2.50;99.90
60727;DHT22;46577;49.004;12.120;2022-12-29T01:15:54;2.50;99.90
60727;DHT22;46577;49.004;12.120;2022-12-29T01:18:21;2.60;99.90
60727;DHT22;46577;49.004;12.120;2022-12-29T01:20:46;2.50;99.90
60727;DHT22;46577;49.004;12.120;2022-12-29T01:23:12;2.50;99.90
60727;DHT22;46577;49.004;12.120;2022-12-29T01:25:38;2.50;99.90
60727;DHT22;46577;49.004;12.120;2022-12-29T01:28:03;2.60;99.90
60727;DHT22;46577;49.004;12.120;2022-12-29T01:30:29;2.50;99.90
60727;DHT22;46577;49.004;12.120;2022-12-29T01:32:55;2.50;99.90
60727;DHT22;46577;49.004;12.120;2022-12-29T01:35:21;2.50;99.90
60727;DHT22;46577;49.004;12.120;2022-12-29T01:37:46;2.40;99.90
60727;DHT22;46577;49.004;12.120;2022-12-29T01:40:12;2.40;99.90
60727;DHT22;46577;49.004;12.120;2022-12-29T01:42:37;2.40;99.90
60727;DHT22;46577;49.004;12.120;2022-12-29T01:45:09;2.40;99.90
60727;DHT22;46577;49.004;12.120;2022-12-29T01:50:09;2.40;99.90
60727;DHT22;46577;49.004;12.120;2022-12-29T01:52:40;2.40;99.90
60727;DHT22;46577;49.004;12.120;2022-12-29T01:55:07;2.40;99.90
60727;DHT22;46577;49.004;12.120;2022-12-29T01:57:37;2.40;99.90
60727;DHT22;46577;49.004;12.120;2022-12-29T02:00:07;2.40;99.90
60727;DHT22;46577;49.004;12.120;2022-12-29T02:02:34;2.40;99.90
60727;DHT22;46577;49.004;12.120;2022-12-29T02:05:05;2.50;99.90
60727;DHT22;46577;49.004;12.120;2022-12-29T02:07:32;2.50;99.90
60727;DHT22;46577;49.004;12.120;2022-12-29T02:09:58;2.50;99.90
60727;DHT22;46577;49.004;12.120;2022-12-29T02:12:25;2.50;99.90
60727;DHT22;46577;49.004;12.120;2022-12-29T02:14:56;2.50;99.90
60727;DHT22;46577;49.004;12.120;2022-12-29T02:20:33;2.50;99.90
60727;DHT22;46577;49.004;12.120;2022-12-29T02:23:30;2.60;99.90
60727;DHT22;46577;49.004;12.120;2022-12-29T02:29:06;2.60;99.90
60727;DHT22;46577;49.004;12.120;2022-12-29T02:31:58;2.60;99.90
60727;DHT22;46577;49.004;12.120;2022-12-29T02:37:20;2.60;99.90
60727;DHT22;46577;49.004;12.120;2022-12-29T02:40:01;2.60;99.90
60727;DHT22;46577;49.004;12.120;2022-12-29T02:45:12;2.70;99.90
60727;DHT22;46577;49.004;12.120;2022-12-29T02:47:42;2.70;99.90
60727;DHT22;46577;49.004;12.120;2022-12-29T02:50:25;2.80;99.90
60727;DHT22;46577;49.004;12.120;2022-12-29T02:53:01;2.70;99.90
60727;DHT22;46577;49.004;12.120;2022-12-29T02:55:27;2.70;99.90
60727;DHT22;46577;49.004;12.120;2022-12-29T03:00:38;2.70;99.90
60727;DHT22;46577;49.004;12.120;2022-12-29T03:03:28;2.70;99.90
60727;DHT22;46577;49.004;12.120;2022-12-29T03:11:41;2.90;99.90
60727;DHT22;46577;49.004;12.120;2022-12-29T03:20:24;2.90;99.90
60727;DHT22;46577;49.004;12.120;2022-12-29T03:22:54;2.90;99.90
60727;DHT22;46577;49.004;12.120;2022-12-29T03:25:25;3.00;99.90
60727;DHT22;46577;49.004;12.120;2022-12-29T03:27:58;3.00;99.90
60727;DHT22;46577;49.004;12.120;2022-12-29T03:30:27;3.00;99.90
60727;DHT22;46577;49.004;12.120;2022-12-29T03:32:56;3.10;99.90
60727;DHT22;46577;49.004;12.120;2022-12-29T03:35:25;3.10;99.90
60727;DHT22;46577;49.004;12.120;2022-12-29T03:37:58;3.00;99.90
60727;DHT22;46577;49.004;12.120;2022-12-29T03:40:26;3.10;99.90
60727;DHT22;46577;49.004;12.120;2022-12-29T03:42:53;3.10;99.90
60727;DHT22;46577;49.004;12.120;2022-12-29T03:45:20;3.10;99.90
60727;DHT22;46577;49.004;12.120;2022-12-29T03:47:45;3.10;99.90
60727;DHT22;46577;49.004;12.120;2022-12-29T03:50:12;3.10;99.90
60727;DHT22;46577;49.004;12.120;2022-12-29T03:52:38;3.20;99.90
60727;DHT22;46577;49.004;12.120;2022-12-29T03:55:04;3.20;99.90
60727;DHT22;46577;49.004;12.120;2022-12-29T03:57:30;3.30;99.90
60727;DHT22;46577;49.004;12.120;2022-12-29T03:59:55;5.60;99.90
60727;DHT22;46577;49.004;12.120;2022-12-29T04:02:21;3.20;99.90
60727;DHT22;46577;49.004;12.120;2022-12-29T04:04:46;3.20;99.90
60727;DHT22;46577;49.004;12.120;2022-12-29T04:07:12;3.20;99.90
60727;DHT22;46577;49.004;12.120;2022-12-29T04:09:37;3.20;99.90
60727;DHT22;46577;49.004;12.120;2022-12-29T04:12:03;3.30;99.90
60727;DHT22;46577;49.004;12.120;2022-12-29T04:14:29;3.20;99.90
60727;DHT22;46577;49.004;12.120;2022-12-29T04:16:54;3.20;99.90
60727;DHT22;46577;49.004;12.120;2022-12-29T04:19:20;3.30;99.90
60727;DHT22;46577;49.004;12.120;2022-12-29T04:21:45;3.30;99.90
60727;DHT22;46577;49.004;12.120;2022-12-29T04:24:11;3.30;99.90
60727;DHT22;46577;49.004;12.120;2022-12-29T04:26:38;3.30;99.90
60727;DHT22;46577;49.004;12.120;2022-12-29T04:29:04;3.40;99.90
60727;DHT22;46577;49.004;12.120;2022-12-29T04:31:29;3.30;99.90
60727;DHT22;46577;49.004;12.120;2022-12-29T04:33:55;3.30;99.90
60727;DHT22;46577;49.004;12.120;2022-12-29T04:36:22;3.30;99.90
60727;DHT22;46577;49.004;12.120;2022-12-29T04:38:48;3.30;99.90
60727;DHT22;46577;49.004;12.120;2022-12-29T04:41:13;3.30;99.90
60727;DHT22;46577;49.004;12.120;2022-12-29T04:43:39;3.30;99.90
60727;DHT22;46577;49.004;12.120;2022-12-29T04:46:05;3.30;99.90
60727;DHT22;46577;49.004;12.120;2022-12-29T04:48:30;3.40;99.90
60727;DHT22;46577;49.004;12.120;2022-12-29T04:50:56;3.50;99.90
60727;DHT22;46577;49.004;12.120;2022-12-29T04:53:22;3.50;99.90
60727;DHT22;46577;49.004;12.120;2022-12-29T04:55:51;3.50;99.90
60727;DHT22;46577;49.004;12.120;2022-12-29T04:58:20;3.50;99.90
60727;DHT22;46577;49.004;12.120;2022-12-29T05:00:45;3.50;99.90
60727;DHT22;46577;49.004;12.120;2022-12-29T05:03:11;3.50;99.90
60727;DHT22;46577;49.004;12.120;2022-12-29T05:05:37;3.50;99.90
60727;DHT22;46577;49.004;12.120;2022-12-29T05:08:02;3.50;99.90
60727;DHT22;46577;49.004;12.120;2022-12-29T05:10:28;3.60;99.90
60727;DHT22;46577;49.004;12.120;2022-12-29T05:12:54;3.50;99.90
60727;DHT22;46577;49.004;12.120;2022-12-29T05:15:20;3.50;99.90
60727;DHT22;46577;49.004;12.120;2022-12-29T05:17:45;3.50;99.90
60727;DHT22;46577;49.004;12.120;2022-12-29T05:20:11;3.60;99.90
60727;DHT22;46577;49.004;12.120;2022-12-29T05:22:37;3.60;99.90
60727;DHT22;46577;49.004;12.120;2022-12-29T05:25:03;3.50;99.90
60727;DHT22;46577;49.004;12.120;2022-12-29T05:27:28;3.50;99.90
60727;DHT22;46577;49.004;12.120;2022-12-29T05:29:54;3.50;99.90
60727;DHT22;46577;49.004;12.120;2022-12-29T05:32:20;3.50;99.90
60727;DHT22;46577;49.004;12.120;2022-12-29T05:34:45;3.60;99.90
60727;DHT22;46577;49.004;12.120;2022-12-29T05:37:11;3.60;99.90
60727;DHT22;46577;49.004;12.120;2022-12-29T05:39:36;3.60;99.90
60727;DHT22;46577;49.004;12.120;2022-12-29T05:42:02;3.50;99.90
60727;DHT22;46577;49.004;12.120;2022-12-29T05:44:28;3.50;99.90
60727;DHT22;46577;49.004;12.120;2022-12-29T05:46:53;3.50;99.90
60727;DHT22;46577;49.004;12.120;2022-12-29T05:49:19;3.50;99.90
60727;DHT22;46577;49.004;12.120;2022-12-29T05:51:44;3.60;99.90
60727;DHT22;46577;49.004;12.120;2022-12-29T05:54:10;3.60;99.90
60727;DHT22;46577;49.004;12.120;2022-12-29T05:56:35;3.50;99.90
60727;DHT22;46577;49.004;12.120;2022-12-29T05:59:01;3.60;99.90
60727;DHT22;46577;49.004;12.120;2022-12-29T06:01:27;3.60;99.90
60727;DHT22;46577;49.004;12.120;2022-12-29T06:03:52;3.50;99.90
60727;DHT22;46577;49.004;12.120;2022-12-29T06:06:18;3.50;99.90
60727;DHT22;46577;49.004;12.120;2022-12-29T06:08:44;3.40;99.90
60727;DHT22;46577;49.004;12.120;2022-12-29T06:11:09;3.40;99.90
60727;DHT22;46577;49.004;12.120;2022-12-29T06:13:35;3.40;99.90
60727;DHT22;46577;49.004;12.120;2022-12-29T06:16:00;3.40;99.90
60727;DHT22;46577;49.004;12.120;2022-12-29T06:18:26;3.30;99.90
60727;DHT22;46577;49.004;12.120;2022-12-29T06:20:52;3.30;99.90
60727;DHT22;46577;49.004;12.120;2022-12-29T06:23:18;3.40;99.90
60727;DHT22;46577;49.004;12.120;2022-12-29T06:25:44;3.40;99.90
60727;DHT22;46577;49.004;12.120;2022-12-29T06:28:09;3.50;99.90
60727;DHT22;46577;49.004;12.120;2022-12-29T06:30:36;3.50;99.90
60727;DHT22;46577;49.004;12.120;2022-12-29T06:33:01;3.50;99.90
60727;DHT22;46577;49.004;12.120;2022-12-29T06:35:27;3.50;99.90
60727;DHT22;46577;49.004;12.120;2022-12-29T06:37:52;3.50;99.90
60727;DHT22;46577;49.004;12.120;2022-12-29T06:40:18;3.50;99.90
60727;DHT22;46577;49.004;12.120;2022-12-29T06:42:44;3.60;99.90
60727;DHT22;46577;49.004;12.120;2022-12-29T06:45:10;3.60;99.90
60727;DHT22;46577;49.004;12.120;2022-12-29T06:47:35;3.50;99.90
60727;DHT22;46577;49.004;12.120;2022-12-29T06:50:01;3.50;99.90
60727;DHT22;46577;49.004;12.120;2022-12-29T06:52:27;3.40;99.90
60727;DHT22;46577;49.004;12.120;2022-12-29T06:54:54;3.40;99.90
60727;DHT22;46577;49.004;12.120;2022-12-29T06:57:20;3.40;99.90
60727;DHT22;46577;49.004;12.120;2022-12-29T06:59:46;3.40;99.90
60727;DHT22;46577;49.004;12.120;2022-12-29T07:02:12;3.40;99.90
60727;DHT22;46577;49.004;12.120;2022-12-29T07:04:40;3.50;99.90
60727;DHT22;46577;49.004;12.120;2022-12-29T07:07:05;3.40;99.90
60727;DHT22;46577;49.004;12.120;2022-12-29T07:09:31;3.40;99.90
60727;DHT22;46577;49.004;12.120;2022-12-29T07:11:56;3.40;99.90
60727;DHT22;46577;49.004;12.120;2022-12-29T07:14:22;3.30;99.90
60727;DHT22;46577;49.004;12.120;2022-12-29T07:16:48;3.30;99.90
60727;DHT22;46577;49.004;12.120;2022-12-29T07:19:13;3.30;99.90
60727;DHT22;46577;49.004;12.120;2022-12-29T07:21:39;3.30;99.90
60727;DHT22;46577;49.004;12.120;2022-12-29T07:24:05;3.70;99.90
60727;DHT22;46577;49.004;12.120;2022-12-29T07:26:31;3.30;99.90
60727;DHT22;46577;49.004;12.120;2022-12-29T07:28:56;3.30;99.90
60727;DHT22;46577;49.004;12.120;2022-12-29T07:31:24;3.30;99.90
60727;DHT22;46577;49.004;12.120;2022-12-29T07:33:49;3.30;99.90
60727;DHT22;46577;49.004;12.120;2022-12-29T07:36:15;3.30;99.90
60727;DHT22;46577;49.004;12.120;2022-12-29T07:38:42;3.30;99.90
60727;DHT22;46577;49.004;12.120;2022-12-29T07:41:08;3.30;99.90
60727;DHT22;46577;49.004;12.120;2022-12-29T07:43:34;3.40;99.90
60727;DHT22;46577;49.004;12.120;2022-12-29T07:46:00;3.40;99.90
60727;DHT22;46577;49.004;12.120;2022-12-29T07:48:26;3.60;99.90
60727;DHT22;46577;49.004;12.120;2022-12-29T07:50:52;3.50;99.90
60727;DHT22;46577;49.004;12.120;2022-12-29T07:53:18;3.50;99.90
60727;DHT22;46577;49.004;12.120;2022-12-29T07:55:43;3.60;99.90
60727;DHT22;46577;49.004;12.120;2022-12-29T07:58:09;3.60;99.90
60727;DHT22;46577;49.004;12.120;2022-12-29T08:00:35;3.70;99.90
60727;DHT22;46577;49.004;12.120;2022-12-29T08:03:00;3.80;99.90
60727;DHT22;46577;49.004;12.120;2022-12-29T08:05:26;3.90;99.90
60727;DHT22;46577;49.004;12.120;2022-12-29T08:07:51;3.30;99.90
60727;DHT22;46577;49.004;12.120;2022-12-29T08:10:17;4.00;99.90
60727;DHT22;46577;49.004;12.120;2022-12-29T08:12:43;4.00;99.90
60727;DHT22;46577;49.004;12.120;2022-12-29T08:15:10;4.00;99.90
60727;DHT22;46577;49.004;12.120;2022-12-29T08:17:36;4.20;99.90
60727;DHT22;46577;49.004;12.120;2022-12-29T08:20:03;4.30;99.90
60727;DHT22;46577;49.004;12.120;2022-12-29T08:22:28;4.40;99.90
60727;DHT22;46577;49.004;12.120;2022-12-29T08:24:54;4.40;99.90
60727;DHT22;46577;49.004;12.120;2022-12-29T08:27:20;4.50;99.90
60727;DHT22;46577;49.004;12.120;2022-12-29T08:29:45;4.70;99.90
60727;DHT22;46577;49.004;12.120;2022-12-29T08:32:11;4.80;99.90
60727;DHT22;46577;49.004;12.120;2022-12-29T08:34:37;4.80;99.90
60727;DHT22;46577;49.004;12.120;2022-12-29T08:37:03;4.80;99.90
60727;DHT22;46577;49.004;12.120;2022-12-29T08:39:29;4.90;99.90
60727;DHT22;46577;49.004;12.120;2022-12-29T08:41:55;5.10;99.90
60727;DHT22;46577;49.004;12.120;2022-12-29T08:44:20;5.50;99.90
60727;DHT22;46577;49.004;12.120;2022-12-29T08:46:46;5.60;99.90
60727;DHT22;46577;49.004;12.120;2022-12-29T08:49:11;5.80;99.90
60727;DHT22;46577;49.004;12.120;2022-12-29T08:51:38;6.00;99.90
60727;DHT22;46577;49.004;12.120;2022-12-29T08:54:04;6.20;99.90
60727;DHT22;46577;49.004;12.120;2022-12-29T08:56:29;6.40;99.90
60727;DHT22;46577;49.004;12.120;2022-12-29T08:58:55;6.60;99.90
60727;DHT22;46577;49.004;12.120;2022-12-29T09:01:21;6.80;99.90
60727;DHT22;46577;49.004;12.120;2022-12-29T09:03:47;6.90;99.90
60727;DHT22;46577;49.004;12.120;2022-12-29T09:06:13;7.10;99.90
60727;DHT22;46577;49.004;12.120;2022-12-29T09:08:39;7.40;99.90
60727;DHT22;46577;49.004;12.120;2022-12-29T09:11:18;7.50;99.90
60727;DHT22;46577;49.004;12.120;2022-12-29T09:13:43;7.20;99.90
60727;DHT22;46577;49.004;12.120;2022-12-29T09:16:09;7.50;99.90
60727;DHT22;46577;49.004;12.120;2022-12-29T09:18:35;7.80;99.90
60727;DHT22;46577;49.004;12.120;2022-12-29T09:21:03;7.90;99.90
60727;DHT22;46577;49.004;12.120;2022-12-29T09:23:30;7.90;99.90
60727;DHT22;46577;49.004;12.120;2022-12-29T09:25:56;8.10;99.90
60727;DHT22;46577;49.004;12.120;2022-12-29T09:28:22;8.20;99.90
60727;DHT22;46577;49.004;12.120;2022-12-29T09:30:48;8.50;99.90
60727;DHT22;46577;49.004;12.120;2022-12-29T09:33:14;8.60;99.90
60727;DHT22;46577;49.004;12.120;2022-12-29T09:35:44;8.40;99.90
60727;DHT22;46577;49.004;12.120;2022-12-29T09:38:10;8.60;99.90
60727;DHT22;46577;49.004;12.120;2022-12-29T09:40:38;9.20;99.90
60727;DHT22;46577;49.004;12.120;2022-12-29T09:48:29;10.70;97.60
60727;DHT22;46577;49.004;12.120;2022-12-29T09:50:59;11.00;96.20
60727;DHT22;46577;49.004;12.120;2022-12-29T09:53:31;10.90;95.60
60727;DHT22;46577;49.004;12.120;2022-12-29T09:56:02;10.90;95.60
60727;DHT22;46577;49.004;12.120;2022-12-29T10:01:07;10.90;95.20
60727;DHT22;46577;49.004;12.120;2022-12-29T10:03:47;10.80;94.80
60727;DHT22;46577;49.004;12.120;2022-12-29T10:12:50;9.40;98.00
60727;DHT22;46577;49.004;12.120;2022-12-29T10:15:26;9.60;97.70
60727;DHT22;46577;49.004;12.120;2022-12-29T10:23:22;10.50;95.90
60727;DHT22;46577;49.004;12.120;2022-12-29T10:25:49;10.40;96.30
60727;DHT22;46577;49.004;12.120;2022-12-29T10:28:21;9.90;97.90
60727;DHT22;46577;49.004;12.120;2022-12-29T10:30:48;9.60;98.20
60727;DHT22;46577;49.004;12.120;2022-12-29T10:33:30;9.40;98.80
60727;DHT22;46577;49.004;12.120;2022-12-29T10:35:57;9.10;99.20
60727;DHT22;46577;49.004;12.120;2022-12-29T10:38:37;9.10;99.90
60727;DHT22;46577;49.004;12.120;2022-12-29T10:41:21;9.10;99.70
60727;DHT22;46577;49.004;12.120;2022-12-29T10:43:53;8.90;99.90
60727;DHT22;46577;49.004;12.120;2022-12-29T10:46:23;8.90;99.90
60727;DHT22;46577;49.004;12.120;2022-12-29T10:48:49;9.00;99.90
60727;DHT22;46577;49.004;12.120;2022-12-29T10:51:24;9.60;99.80
60727;DHT22;46577;49.004;12.120;2022-12-29T10:54:00;10.50;97.40
60727;DHT22;46577;49.004;12.120;2022-12-29T10:59:29;11.30;95.80
60727;DHT22;46577;49.004;12.120;2022-12-29T11:07:58;11.40;95.20
60727;DHT22;46577;49.004;12.120;2022-12-29T11:10:35;11.30;95.10
60727;DHT22;46577;49.004;12.120;2022-12-29T11:13:05;11.30;95.00
60727;DHT22;46577;49.004;12.120;2022-12-29T11:15:47;11.20;94.70
60727;DHT22;46577;49.004;12.120;2022-12-29T11:21:01;11.50;94.70
60727;DHT22;46577;49.004;12.120;2022-12-29T11:23:38;11.90;94.10
60727;DHT22;46577;49.004;12.120;2022-12-29T11:26:22;11.80;94.10
60727;DHT22;46577;49.004;12.120;2022-12-29T11:29:17;11.90;94.00
60727;DHT22;46577;49.004;12.120;2022-12-29T11:31:47;11.90;93.60
60727;DHT22;46577;49.004;12.120;2022-12-29T11:34:33;11.70;94.00
60727;DHT22;46577;49.004;12.120;2022-12-29T11:37:20;11.20;94.40
60727;DHT22;46577;49.004;12.120;2022-12-29T11:45:17;10.50;96.80
60727;DHT22;46577;49.004;12.120;2022-12-29T11:47:46;10.50;97.30
60727;DHT22;46577;49.004;12.120;2022-12-29T11:50:31;10.90;96.90
60727;DHT22;46577;49.004;12.120;2022-12-29T11:53:14;12.30;95.30
60727;DHT22;46577;49.004;12.120;2022-12-29T11:55:54;13.90;92.70
60727;DHT22;46577;49.004;12.120;2022-12-29T11:58:20;15.40;87.10
60727;DHT22;46577;49.004;12.120;2022-12-29T12:00:47;16.40;80.40
60727;DHT22;46577;49.004;12.120;2022-12-29T12:03:23;16.80;74.30
60727;DHT22;46577;49.004;12.120;2022-12-29T12:06:01;16.90;71.90
60727;DHT22;46577;49.004;12.120;2022-12-29T12:11:19;16.40;70.40
60727;DHT22;46577;49.004;12.120;2022-12-29T12:14:05;15.90;71.00
60727;DHT22;46577;49.004;12.120;2022-12-29T12:16:39;15.30;73.10
60727;DHT22;46577;49.004;12.120;2022-12-29T12:21:47;14.40;77.70
60727;DHT22;46577;49.004;12.120;2022-12-29T12:29:55;15.70;74.60
60727;DHT22;46577;49.004;12.120;2022-12-29T12:35:03;14.40;78.00
60727;DHT22;46577;49.004;12.120;2022-12-29T12:40:59;13.00;85.00
60727;DHT22;46577;49.004;12.120;2022-12-29T12:54:44;11.50;97.50
60727;DHT22;46577;49.004;12.120;2022-12-29T13:00:11;11.20;98.50
60727;DHT22;46577;49.004;12.120;2022-12-29T13:03:03;11.10;99.10
60727;DHT22;46577;49.004;12.120;2022-12-29T13:06:09;11.10;99.90
60727;DHT22;46577;49.004;12.120;2022-12-29T13:22:24;10.90;99.90
60727;DHT22;46577;49.004;12.120;2022-12-29T13:25:15;10.90;99.90
60727;DHT22;46577;49.004;12.120;2022-12-29T13:27:56;10.90;99.90
60727;DHT22;46577;49.004;12.120;2022-12-29T13:30:40;10.80;99.90
60727;DHT22;46577;49.004;12.120;2022-12-29T13:39:25;10.90;99.90
60727;DHT22;46577;49.004;12.120;2022-12-29T13:41:35;10.90;99.90
60727;DHT22;46577;49.004;12.120;2022-12-29T13:44:04;10.90;99.90
60727;DHT22;46577;49.004;12.120;2022-12-29T13:46:38;11.10;99.90
60727;DHT22;46577;49.004;12.120;2022-12-29T13:49:13;10.90;99.90
60727;DHT22;46577;49.004;12.120;2022-12-29T13:52:09;10.70;99.90
60727;DHT22;46577;49.004;12.120;2022-12-29T14:00:16;10.30;99.90
60727;DHT22;46577;49.004;12.120;2022-12-29T14:05:31;10.10;99.90
60727;DHT22;46577;49.004;12.120;2022-12-29T14:08:03;10.00;99.90
60727;DHT22;46577;49.004;12.120;2022-12-29T14:10:33;10.00;99.90
60727;DHT22;46577;49.004;12.120;2022-12-29T14:13:21;10.00;99.90
60727;DHT22;46577;49.004;12.120;2022-12-29T14:15:55;10.00;99.90
60727;DHT22;46577;49.004;12.120;2022-12-29T14:18:26;10.00;99.90
60727;DHT22;46577;49.004;12.120;2022-12-29T14:28:37;9.90;99.90
60727;DHT22;46577;49.004;12.120;2022-12-29T14:36:42;9.90;99.90
60727;DHT22;46577;49.004;12.120;2022-12-29T14:39:44;10.00;99.90
60727;DHT22;46577;49.004;12.120;2022-12-29T14:44:48;10.10;99.90
60727;DHT22;46577;49.004;12.120;2022-12-29T14:47:35;10.20;99.90
60727;DHT22;46577;49.004;12.120;2022-12-29T14:52:50;10.20;99.90
60727;DHT22;46577;49.004;12.120;2022-12-29T14:57:47;10.00;99.90
60727;DHT22;46577;49.004;12.120;2022-12-29T15:00:23;9.80;99.90
60727;DHT22;46577;49.004;12.120;2022-12-29T15:03:04;9.70;99.90
60727;DHT22;46577;49.004;12.120;2022-12-29T15:08:29;9.50;99.90
60727;DHT22;46577;49.004;12.120;2022-12-29T15:11:18;9.50;99.90
60727;DHT22;46577;49.004;12.120;2022-12-29T15:13:46;9.50;99.90
60727;DHT22;46577;49.004;12.120;2022-12-29T15:18:54;9.50;99.90
60727;DHT22;46577;49.004;12.120;2022-12-29T15:21:40;9.50;99.90
60727;DHT22;46577;49.004;12.120;2022-12-29T15:24:10;9.60;99.90
60727;DHT22;46577;49.004;12.120;2022-12-29T15:26:39;9.50;99.90
60727;DHT22;46577;49.004;12.120;2022-12-29T15:29:05;9.60;99.90
60727;DHT22;46577;49.004;12.120;2022-12-29T15:31:30;9.60;99.90
60727;DHT22;46577;49.004;12.120;2022-12-29T15:34:12;9.60;99.90
60727;DHT22;46577;49.004;12.120;2022-12-29T15:36:39;9.60;99.90
60727;DHT22;46577;49.004;12.120;2022-12-29T15:39:31;9.60;99.90
60727;DHT22;46577;49.004;12.120;2022-12-29T15:42:03;9.50;99.90
60727;DHT22;46577;49.004;12.120;2022-12-29T15:44:42;9.50;99.90
60727;DHT22;46577;49.004;12.120;2022-12-29T15:47:18;9.50;99.90
60727;DHT22;46577;49.004;12.120;2022-12-29T15:49:48;9.60;99.90
60727;DHT22;46577;49.004;12.120;2022-12-29T15:52:21;9.60;99.90
60727;DHT22;46577;49.004;12.120;2022-12-29T15:54:50;9.60;99.90
60727;DHT22;46577;49.004;12.120;2022-12-29T15:57:25;9.80;99.90
60727;DHT22;46577;49.004;12.120;2022-12-29T15:59:51;9.70;99.90
60727;DHT22;46577;49.004;12.120;2022-12-29T16:02:17;9.80;99.90
60727;DHT22;46577;49.004;12.120;2022-12-29T16:04:43;9.90;99.90
60727;DHT22;46577;49.004;12.120;2022-12-29T16:09:54;10.00;99.90
60727;DHT22;46577;49.004;12.120;2022-12-29T16:12:22;10.00;99.90
60727;DHT22;46577;49.004;12.120;2022-12-29T16:14:54;10.10;99.90
60727;DHT22;46577;49.004;12.120;2022-12-29T16:17:28;10.10;99.90
60727;DHT22;46577;49.004;12.120;2022-12-29T16:20:00;10.00;99.90
60727;DHT22;46577;49.004;12.120;2022-12-29T16:22:56;10.10;99.90
60727;DHT22;46577;49.004;12.120;2022-12-29T16:27:46;10.10;99.90
60727;DHT22;46577;49.004;12.120;2022-12-29T16:30:22;10.10;99.90
60727;DHT22;46577;49.004;12.120;2022-12-29T16:32:53;10.10;99.90
60727;DHT22;46577;49.004;12.120;2022-12-29T16:40:37;10.00;99.90
60727;DHT22;46577;49.004;12.120;2022-12-29T16:43:04;10.00;99.90
60727;DHT22;46577;49.004;12.120;2022-12-29T16:48:36;9.80;99.90
60727;DHT22;46577;49.004;12.120;2022-12-29T16:51:17;9.70;99.90
60727;DHT22;46577;49.004;12.120;2022-12-29T16:53:52;9.70;99.90
60727;DHT22;46577;49.004;12.120;2022-12-29T16:56:25;9.50;99.90
60727;DHT22;46577;49.004;12.120;2022-12-29T16:59:08;9.40;99.90
60727;DHT22;46577;49.004;12.120;2022-12-29T17:01:39;9.40;99.90
60727;DHT22;46577;49.004;12.120;2022-12-29T17:04:07;9.40;99.90
60727;DHT22;46577;49.004;12.120;2022-12-29T17:06:33;9.30;99.90
60727;DHT22;46577;49.004;12.120;2022-12-29T17:08:59;9.30;99.90
60727;DHT22;46577;49.004;12.120;2022-12-29T17:11:31;9.20;99.90
60727;DHT22;46577;49.004;12.120;2022-12-29T17:17:40;9.10;99.90
60727;DHT22;46577;49.004;12.120;2022-12-29T17:22:40;9.00;99.90
60727;DHT22;46577;49.004;12.120;2022-12-29T17:25:08;8.90;99.90
60727;DHT22;46577;49.004;12.120;2022-12-29T17:27:58;8.80;99.90
60727;DHT22;46577;49.004;12.120;2022-12-29T17:30:25;8.70;99.90
60727;DHT22;46577;49.004;12.120;2022-12-29T17:35:21;8.50;99.90
60727;DHT22;46577;49.004;12.120;2022-12-29T17:37:47;8.30;99.90
60727;DHT22;46577;49.004;12.120;2022-12-29T17:40:18;8.20;99.90
60727;DHT22;46577;49.004;12.120;2022-12-29T17:42:47;8.10;99.90
60727;DHT22;46577;49.004;12.120;2022-12-29T17:45:33;8.00;99.90
60727;DHT22;46577;49.004;12.120;2022-12-29T17:47:59;7.80;99.90
60727;DHT22;46577;49.004;12.120;2022-12-29T17:50:27;7.70;99.90
60727;DHT22;46577;49.004;12.120;2022-12-29T17:53:03;7.70;99.90
60727;DHT22;46577;49.004;12.120;2022-12-29T17:55:29;7.50;99.90
60727;DHT22;46577;49.004;12.120;2022-12-29T17:57:55;7.40;99.90
60727;DHT22;46577;49.004;12.120;2022-12-29T18:00:24;7.40;99.90
60727;DHT22;46577;49.004;12.120;2022-12-29T18:02:52;7.30;99.90
60727;DHT22;46577;49.004;12.120;2022-12-29T18:05:27;7.30;99.90
60727;DHT22;46577;49.004;12.120;2022-12-29T18:07:56;7.40;99.90
60727;DHT22;46577;49.004;12.120;2022-12-29T18:10:24;7.50;99.90
60727;DHT22;46577;49.004;12.120;2022-12-29T18:12:53;7.30;99.90
60727;DHT22;46577;49.004;12.120;2022-12-29T18:15:24;7.20;99.90
60727;DHT22;46577;49.004;12.120;2022-12-29T18:17:59;7.10;99.90
60727;DHT22;46577;49.004;12.120;2022-12-29T18:20:26;7.10;99.90
60727;DHT22;46577;49.004;12.120;2022-12-29T18:22:52;7.10;99.90
60727;DHT22;46577;49.004;12.120;2022-12-29T18:25:21;7.00;99.90
60727;DHT22;46577;49.004;12.120;2022-12-29T18:27:48;7.10;99.90
60727;DHT22;46577;49.004;12.120;2022-12-29T18:30:13;7.00;99.90
60727;DHT22;46577;49.004;12.120;2022-12-29T18:32:39;7.00;99.90
60727;DHT22;46577;49.004;12.120;2022-12-29T18:35:27;7.00;99.90
60727;DHT22;46577;49.004;12.120;2022-12-29T18:37:53;7.00;99.90
60727;DHT22;46577;49.004;12.120;2022-12-29T18:40:18;7.00;99.90
60727;DHT22;46577;49.004;12.120;2022-12-29T18:42:45;7.00;99.90